El Trompillo Airport

SLET · Santa Cruz, Bolivien

METAR-Geschichte SLET · El Trompillo Airport

Unten siehst du die METARs der letzten paar Tage. Wähle ein Jahr, um ältere METARs ab dem Jahr 2007 zu durchsuchen.

26. Februar 2024

Uhrzeit Code Wetter Temp. Sichtweite Wolkendecke Wind METAR/SPECI
19:00
V
28 °C 10 km+ - 320° 320° 8 kt METAR SLET 262300Z 32008KT 9999 FEW020 SCT200 28/22 Q1011
19:00
V
28 °C 10 km+ - 320° 320° 8 kt METAR SLET 262300Z 32008KT 9999 FEW020 SCT200 28/22 Q1011
18:00
V
29 °C 10 km+ - 320° 320° 12 kt METAR SLET 262200Z 32012KT 9999 FEW023 SCT200 29/22 Q1011
17:00
V
30 °C 10 km+ - 340° 340° 13 kt METAR SLET 262100Z 34013KT 9999 FEW023 SCT200 30/22 Q1011
16:00
V
31 °C 10 km+ - 340° 340° 13 kt METAR SLET 262000Z 34013KT 9999 FEW023 31/22 Q1012
15:00
V
31 °C 10 km+ - 360° 360° 13 kt METAR SLET 261900Z 36013KT 9999 FEW023 31/22 Q1013
14:00
V
31 °C 10 km+ - 360° 360° 13 kt METAR SLET 261800Z 36013KT 9999 FEW023 SCT080 31/22 Q1014
13:00
V
31 °C 10 km+ - 330° 330° 13 kt METAR SLET 261700Z 33013KT 9999 FEW023 SCT080 31/23 Q1015
12:00
V
29 °C 10 km+ - 310° 310° 13 kt METAR SLET 261600Z 31013KT 9999 SCT020 SCT080 29/23 Q1016
11:00
V
29 °C 10 km+ - 320° 320° 9 kt METAR SLET 261500Z 32009KT 9999 SCT020 SCT080 29/23 Q1017
10:00
V
29 °C 10 km+ - 320° 320° 9 kt METAR SLET 261400Z 32009KT 9999 SCT020 SCT200 29/23 Q1017
09:00
V
27 °C 10 km+ - 320° 320° 9 kt METAR SLET 261300Z 32009KT 9999 FEW023 SCT080 27/24 Q1017
08:00
V
25 °C 10 km+ - 280° 280° 4 kt METAR SLET 261200Z 28004KT 9999 SCT023 SCT080 25/23 Q1017
07:00
V
23 °C 10 km+ - Var Var 2 kt METAR SLET 261100Z VRB02KT 9999 FEW023 SCT080 23/22 Q1016
06:00
V
23 °C 10 km+ 20.000 ft 250° 250° 4 kt METAR SLET 261000Z 25004KT 9999 FEW023 SCT070 BKN200 23/22 Q1015

25. Februar 2024

Uhrzeit Code Wetter Temp. Sichtweite Wolkendecke Wind METAR/SPECI
19:00
V
26 °C 10 km+ - 060° 060° 6 kt METAR SLET 252300Z 06006KT 9999 FEW015 SCT200 26/22 Q1013
18:00
V
27 °C 10 km+ 20.000 ft 070° 070° 8 kt METAR SLET 252200Z 07008KT 9999 FEW025TCU BKN200 27/22 Q1013
17:00
V
28 °C 10 km+ 20.000 ft 090° 090° 8 kt METAR SLET 252100Z 09008KT 9999 FEW017 BKN200 28/22 Q1013
16:00
V
28 °C 10 km+ 20.000 ft 140° 140° 6 kt METAR SLET 252000Z 14006KT 9999 FEW017 FEW030CB BKN200 28/22 Q1013
15:00
V
28 °C 10 km+ 20.000 ft 070° 070° 8 kt METAR SLET 251900Z 07008KT 9999 FEW017 FEW030CB SCT070 BKN200 28/22 Q1015
14:00
V
28 °C 10 km+ 20.000 ft 120° 120° 8 kt METAR SLET 251800Z 12008KT 9999 FEW017 FEW030CB SCT070 BKN200 28/22 Q1016
13:00
V
27 °C 10 km+ 20.000 ft 180° 180° 10 kt METAR SLET 251700Z 18010KT 9999 FEW012 SCT070 BKN200 27/22 Q1017
12:00
V
26 °C 10 km+ 7.000 ft 180° 180° 12 kt METAR SLET 251600Z 18012KT 9999 FEW010 SCT025 FEW030CB BKN070 26/24 Q1018
11:00
V
24 °C 10 km+ 7.000 ft 200° 200° 11 kt METAR SLET 251500Z 20011KT 9999 ?RA SCT010 SCT023 BKN070 24/23 Q1019
10:00
M
23 °C 6 km 2.300 ft 160° 160° 8 kt METAR SLET 251400Z 16008KT 6000 ?RA SCT010 BKN023 OVC070 23/22 Q1019
09:17
M
23 °C 8 km 2.300 ft 150° 150° 10 kt METAR SLET 251317Z 15010KT 8000 ?RA SCT010 BKN023 OVC070 23/22 Q1019
09:00
I
23 °C 7 km 800 ft 150° 150° 11 kt METAR SLET 251300Z 15011KT 7000 ?RA BKN008 BKN023 OVC070 23/22 Q1019
08:00
I
23 °C 4 km 800 ft 090° 090° 8 kt METAR SLET 251200Z 09008KT 4000 ?RA BKN008 BKN017 OVC070 23/22 Q1019
07:37
L
23 °C 800 m 800 ft 030° 030° 10 kt METAR SLET 251137Z 03010KT 0800 +RA BKN008 BKN017 OVC070 23/22 Q1018
07:00
I
23 °C 4 km 800 ft 190° 190° 6 kt METAR SLET 251100Z 19006KT 4000 ?RA BKN008 BKN017 OVC070 23/22 Q1017
06:00
I
23 °C 4 km 800 ft 160° 160° 8 kt METAR SLET 251000Z 16008KT 4000 -RA BKN008 BKN017 OVC070 23/22 Q1017

24. Februar 2024

Uhrzeit Code Wetter Temp. Sichtweite Wolkendecke Wind METAR/SPECI
19:00
V
24 °C 10 km+ 7.000 ft 210° 210° 5 kt METAR SLET 242300Z 21005KT 9999 SCT020 BKN070 24/23 Q1014
18:00
M
25 °C 10 km+ 2.000 ft 210° 210° 8 kt METAR SLET 242200Z 21008KT 9999 BKN020 BKN070 25/24 Q1013
17:00
V
24 °C 10 km+ 7.000 ft 160° 160° 6 kt METAR SLET 242100Z 16006KT 9999 FEW010 SCT020 FEW030CB BKN070 24/23 Q1013
16:00
M
25 °C 8 km 1.700 ft 120° 120° 8 kt METAR SLET 242000Z 12008KT 8000 /TSRA SCT010 BKN017 FEW030CB OVC070 25/23 Q1013
15:02
L
24 °C 1 km 1.700 ft 140° 140° 14 kt METAR SLET 241902Z 14014KT 1000 TSRA SCT010 BKN017 FEW030CB OVC070 24/23 Q1014
15:00
I
26 °C 2,5 km 1.700 ft 110° 110° 10 kt METAR SLET 241900Z 11010KT 2500 ?RA BKN017 FEW030CB OVC070 26/23 Q1014
14:00
V
30 °C 8 km 7.000 ft 110° 110° 12 kt METAR SLET 241800Z 11012KT 8000 VCSH SCT017 FEW030CB BKN070 30/24 Q1014
13:00
M
30 °C 10 km+ 1.700 ft 130° 130° 13 kt METAR SLET 241700Z 13013KT 9999 FEW012 BKN017 FEW030CB BKN070 30/23 Q1015
12:00
M
28 °C 10 km+ 1.700 ft 130° 130° 14 kt METAR SLET 241600Z 13014KT 9999 SCT012 BKN017 BKN070 28/23 Q1015
11:00
M
28 °C 10 km+ 1.700 ft 160° 160° 13 kt METAR SLET 241500Z 16013KT 9999 FEW012 BKN017 BKN070 28/23 Q1016
10:00
M
26 °C 10 km+ 1.700 ft 160° 160° 14 kt METAR SLET 241400Z 16014KT 9999 FEW010 BKN017 BKN070 26/23 Q1016
09:00
M
24 °C 10 km+ 1.500 ft 150° 150° 13 kt METAR SLET 241300Z 15013KT 9999 SCT010 BKN015 FEW030CB OVC070 24/23 Q1015
08:00
I
24 °C 8 km 800 ft 170° 170° 10 kt METAR SLET 241200Z 17010KT 8000 /RA BKN008 BKN015 FEW030CB OVC070 24/23 Q1015
07:32
I
24 °C 4 km 800 ft 190° 190° 10 kt METAR SLET 241132Z 19010KT 4000 -TSRA BKN008 BKN015 FEW030CB OVC070 24/23 Q1015
07:17
I
24 °C 1,5 km 1.000 ft 190° 190° 8 kt METAR SLET 241117Z 19008KT 1500 TSRA BKN010 BKN015 FEW030CB OVC070 24/23 Q1015
07:00
I
24 °C 3 km 1.000 ft 190° 190° 8 kt METAR SLET 241100Z 19008KT 3000 -TSRA BKN010 BKN015 FEW030CB OVC070 24/23 Q1014
06:00
I
24 °C 2 km 1.200 ft 300° 300° 10 kt METAR SLET 241000Z 30010KT 2000 TSRA BKN012 FEW030CB OVC070 24/23 Q1014